sensor_id;sensor_type;location;lat;lon;timestamp;P1;durP1;ratioP1;P2;durP2;ratioP2
75820;SDS011;64454;51.984;9.838;2024-03-02T00:00:23;19.25;;;14.68;;
75820;SDS011;64454;51.984;9.838;2024-03-02T00:02:50;19.02;;;13.30;;
75820;SDS011;64454;51.984;9.838;2024-03-02T00:05:18;20.40;;;14.27;;
75820;SDS011;64454;51.984;9.838;2024-03-02T00:07:47;20.40;;;13.57;;
75820;SDS011;64454;51.984;9.838;2024-03-02T00:10:20;19.60;;;14.45;;
75820;SDS011;64454;51.984;9.838;2024-03-02T00:12:53;21.63;;;14.85;;
75820;SDS011;64454;51.984;9.838;2024-03-02T00:15:33;19.58;;;14.95;;
75820;SDS011;64454;51.984;9.838;2024-03-02T00:18:08;23.23;;;14.98;;
75820;SDS011;64454;51.984;9.838;2024-03-02T00:20:38;22.67;;;15.30;;
75820;SDS011;64454;51.984;9.838;2024-03-02T00:23:06;22.48;;;14.88;;
75820;SDS011;64454;51.984;9.838;2024-03-02T00:25:38;22.77;;;15.48;;
75820;SDS011;64454;51.984;9.838;2024-03-02T00:28:10;19.42;;;14.25;;
75820;SDS011;64454;51.984;9.838;2024-03-02T00:33:30;22.48;;;15.60;;
75820;SDS011;64454;51.984;9.838;2024-03-02T00:35:58;22.63;;;14.63;;
75820;SDS011;64454;51.984;9.838;2024-03-02T00:38:26;22.08;;;15.13;;
75820;SDS011;64454;51.984;9.838;2024-03-02T00:40:53;22.75;;;16.27;;
75820;SDS011;64454;51.984;9.838;2024-03-02T00:43:36;24.08;;;15.65;;
75820;SDS011;64454;51.984;9.838;2024-03-02T00:46:07;22.23;;;15.73;;
75820;SDS011;64454;51.984;9.838;2024-03-02T00:48:35;19.70;;;14.00;;
75820;SDS011;64454;51.984;9.838;2024-03-02T00:51:02;25.50;;;16.17;;
75820;SDS011;64454;51.984;9.838;2024-03-02T00:53:29;20.98;;;15.80;;
75820;SDS011;64454;51.984;9.838;2024-03-02T00:55:58;24.42;;;15.10;;
75820;SDS011;64454;51.984;9.838;2024-03-02T00:58:25;25.08;;;17.08;;
75820;SDS011;64454;51.984;9.838;2024-03-02T01:00:51;24.10;;;16.90;;
75820;SDS011;64454;51.984;9.838;2024-03-02T01:03:17;26.48;;;17.70;;
75820;SDS011;64454;51.984;9.838;2024-03-02T01:05:44;22.35;;;15.48;;
75820;SDS011;64454;51.984;9.838;2024-03-02T01:08:10;21.60;;;15.65;;
75820;SDS011;64454;51.984;9.838;2024-03-02T01:10:36;25.98;;;16.52;;
75820;SDS011;64454;51.984;9.838;2024-03-02T01:13:03;20.83;;;16.10;;
75820;SDS011;64454;51.984;9.838;2024-03-02T01:15:29;21.67;;;15.88;;
75820;SDS011;64454;51.984;9.838;2024-03-02T01:17:55;22.90;;;15.20;;
75820;SDS011;64454;51.984;9.838;2024-03-02T01:20:21;19.17;;;14.52;;
75820;SDS011;64454;51.984;9.838;2024-03-02T01:22:47;23.98;;;14.90;;
75820;SDS011;64454;51.984;9.838;2024-03-02T01:25:13;20.92;;;15.32;;
75820;SDS011;64454;51.984;9.838;2024-03-02T01:27:39;21.95;;;15.45;;
75820;SDS011;64454;51.984;9.838;2024-03-02T01:30:07;23.27;;;15.50;;
75820;SDS011;64454;51.984;9.838;2024-03-02T01:32:34;24.63;;;16.48;;
75820;SDS011;64454;51.984;9.838;2024-03-02T01:35:00;22.15;;;15.88;;
75820;SDS011;64454;51.984;9.838;2024-03-02T01:37:26;21.33;;;15.80;;
75820;SDS011;64454;51.984;9.838;2024-03-02T01:39:52;25.10;;;16.00;;
75820;SDS011;64454;51.984;9.838;2024-03-02T01:42:18;21.85;;;15.07;;
75820;SDS011;64454;51.984;9.838;2024-03-02T01:44:44;20.50;;;15.60;;
75820;SDS011;64454;51.984;9.838;2024-03-02T01:47:11;21.73;;;15.43;;
75820;SDS011;64454;51.984;9.838;2024-03-02T01:49:37;20.52;;;14.95;;
75820;SDS011;64454;51.984;9.838;2024-03-02T01:52:06;22.77;;;16.20;;
75820;SDS011;64454;51.984;9.838;2024-03-02T01:54:32;23.35;;;14.65;;
75820;SDS011;64454;51.984;9.838;2024-03-02T01:56:58;23.40;;;16.00;;
75820;SDS011;64454;51.984;9.838;2024-03-02T01:59:24;22.27;;;15.15;;
75820;SDS011;64454;51.984;9.838;2024-03-02T02:01:51;22.52;;;15.43;;
75820;SDS011;64454;51.984;9.838;2024-03-02T02:04:18;23.65;;;15.23;;
75820;SDS011;64454;51.984;9.838;2024-03-02T02:06:46;22.00;;;14.70;;
75820;SDS011;64454;51.984;9.838;2024-03-02T02:09:12;21.52;;;14.38;;
75820;SDS011;64454;51.984;9.838;2024-03-02T02:11:39;21.25;;;14.77;;
75820;SDS011;64454;51.984;9.838;2024-03-02T02:14:06;21.55;;;14.98;;
75820;SDS011;64454;51.984;9.838;2024-03-02T02:16:32;23.48;;;15.50;;
75820;SDS011;64454;51.984;9.838;2024-03-02T02:18:58;22.88;;;13.88;;
75820;SDS011;64454;51.984;9.838;2024-03-02T02:21:25;19.50;;;13.55;;
75820;SDS011;64454;51.984;9.838;2024-03-02T02:23:52;18.65;;;12.98;;
75820;SDS011;64454;51.984;9.838;2024-03-02T02:26:18;18.90;;;12.50;;
75820;SDS011;64454;51.984;9.838;2024-03-02T02:28:44;18.05;;;12.48;;
75820;SDS011;64454;51.984;9.838;2024-03-02T02:31:12;18.60;;;12.68;;
75820;SDS011;64454;51.984;9.838;2024-03-02T02:33:38;18.63;;;11.97;;
75820;SDS011;64454;51.984;9.838;2024-03-02T02:36:05;19.02;;;12.57;;
75820;SDS011;64454;51.984;9.838;2024-03-02T02:38:32;17.52;;;12.75;;
75820;SDS011;64454;51.984;9.838;2024-03-02T02:41:02;19.15;;;12.85;;
75820;SDS011;64454;51.984;9.838;2024-03-02T02:43:28;20.23;;;14.07;;
75820;SDS011;64454;51.984;9.838;2024-03-02T02:45:54;20.63;;;13.75;;
75820;SDS011;64454;51.984;9.838;2024-03-02T02:48:20;21.50;;;13.48;;
75820;SDS011;64454;51.984;9.838;2024-03-02T02:50:47;20.98;;;13.93;;
75820;SDS011;64454;51.984;9.838;2024-03-02T02:53:14;21.85;;;14.52;;
75820;SDS011;64454;51.984;9.838;2024-03-02T02:55:40;19.17;;;14.00;;
75820;SDS011;64454;51.984;9.838;2024-03-02T02:58:08;19.05;;;13.95;;
75820;SDS011;64454;51.984;9.838;2024-03-02T03:00:34;20.40;;;14.15;;
75820;SDS011;64454;51.984;9.838;2024-03-02T03:03:01;20.30;;;13.55;;
75820;SDS011;64454;51.984;9.838;2024-03-02T03:05:28;18.67;;;13.27;;
75820;SDS011;64454;51.984;9.838;2024-03-02T03:07:54;20.27;;;13.47;;
75820;SDS011;64454;51.984;9.838;2024-03-02T03:10:20;20.45;;;14.30;;
75820;SDS011;64454;51.984;9.838;2024-03-02T03:12:48;19.65;;;13.93;;
75820;SDS011;64454;51.984;9.838;2024-03-02T03:15:15;21.38;;;14.00;;
75820;SDS011;64454;51.984;9.838;2024-03-02T03:17:41;19.00;;;13.90;;
75820;SDS011;64454;51.984;9.838;2024-03-02T03:20:08;22.90;;;14.18;;
75820;SDS011;64454;51.984;9.838;2024-03-02T03:22:34;21.55;;;14.48;;
75820;SDS011;64454;51.984;9.838;2024-03-02T03:25:01;21.05;;;16.30;;
75820;SDS011;64454;51.984;9.838;2024-03-02T03:27:28;23.83;;;15.52;;
75820;SDS011;64454;51.984;9.838;2024-03-02T03:29:55;22.10;;;15.47;;
75820;SDS011;64454;51.984;9.838;2024-03-02T03:32:21;23.08;;;15.73;;
75820;SDS011;64454;51.984;9.838;2024-03-02T03:34:47;24.13;;;16.30;;
75820;SDS011;64454;51.984;9.838;2024-03-02T03:37:14;25.00;;;16.33;;
75820;SDS011;64454;51.984;9.838;2024-03-02T03:39:40;21.15;;;14.63;;
75820;SDS011;64454;51.984;9.838;2024-03-02T03:42:06;20.08;;;14.95;;
75820;SDS011;64454;51.984;9.838;2024-03-02T03:44:32;22.98;;;15.25;;
75820;SDS011;64454;51.984;9.838;2024-03-02T03:47:00;24.42;;;15.40;;
75820;SDS011;64454;51.984;9.838;2024-03-02T03:49:27;21.90;;;15.18;;
75820;SDS011;64454;51.984;9.838;2024-03-02T03:51:53;20.58;;;14.43;;
75820;SDS011;64454;51.984;9.838;2024-03-02T03:54:19;22.98;;;15.57;;
75820;SDS011;64454;51.984;9.838;2024-03-02T03:56:45;22.40;;;14.77;;
75820;SDS011;64454;51.984;9.838;2024-03-02T03:59:11;22.73;;;15.20;;
75820;SDS011;64454;51.984;9.838;2024-03-02T04:01:37;20.52;;;14.35;;
75820;SDS011;64454;51.984;9.838;2024-03-02T04:04:04;21.65;;;14.80;;
75820;SDS011;64454;51.984;9.838;2024-03-02T04:06:32;22.92;;;15.80;;
75820;SDS011;64454;51.984;9.838;2024-03-02T04:08:58;21.50;;;14.82;;
75820;SDS011;64454;51.984;9.838;2024-03-02T04:11:24;20.02;;;14.88;;
75820;SDS011;64454;51.984;9.838;2024-03-02T04:13:50;22.48;;;14.00;;
75820;SDS011;64454;51.984;9.838;2024-03-02T04:16:16;20.17;;;14.98;;
75820;SDS011;64454;51.984;9.838;2024-03-02T04:18:42;22.95;;;15.52;;
75820;SDS011;64454;51.984;9.838;2024-03-02T04:21:09;21.55;;;14.55;;
75820;SDS011;64454;51.984;9.838;2024-03-02T04:23:35;25.73;;;15.90;;
75820;SDS011;64454;51.984;9.838;2024-03-02T04:26:01;23.10;;;14.95;;
75820;SDS011;64454;51.984;9.838;2024-03-02T04:28:27;26.13;;;17.45;;
75820;SDS011;64454;51.984;9.838;2024-03-02T04:30:53;20.10;;;15.80;;
75820;SDS011;64454;51.984;9.838;2024-03-02T04:33:19;23.75;;;15.95;;
75820;SDS011;64454;51.984;9.838;2024-03-02T04:35:45;23.65;;;15.82;;
75820;SDS011;64454;51.984;9.838;2024-03-02T04:38:12;20.98;;;15.02;;
75820;SDS011;64454;51.984;9.838;2024-03-02T04:40:38;23.20;;;16.10;;
75820;SDS011;64454;51.984;9.838;2024-03-02T04:43:04;22.65;;;15.73;;
75820;SDS011;64454;51.984;9.838;2024-03-02T04:45:30;24.13;;;17.25;;
75820;SDS011;64454;51.984;9.838;2024-03-02T04:47:56;22.95;;;16.02;;
75820;SDS011;64454;51.984;9.838;2024-03-02T04:50:22;20.42;;;15.32;;
75820;SDS011;64454;51.984;9.838;2024-03-02T04:52:48;22.95;;;14.98;;
75820;SDS011;64454;51.984;9.838;2024-03-02T04:55:15;22.67;;;15.88;;
75820;SDS011;64454;51.984;9.838;2024-03-02T04:58:10;22.20;;;15.55;;
75820;SDS011;64454;51.984;9.838;2024-03-02T05:00:36;22.45;;;15.60;;
75820;SDS011;64454;51.984;9.838;2024-03-02T05:03:03;21.52;;;15.68;;
75820;SDS011;64454;51.984;9.838;2024-03-02T05:05:29;24.17;;;15.88;;
75820;SDS011;64454;51.984;9.838;2024-03-02T05:07:55;21.42;;;14.77;;
75820;SDS011;64454;51.984;9.838;2024-03-02T05:10:22;19.05;;;14.32;;
75820;SDS011;64454;51.984;9.838;2024-03-02T05:12:49;22.70;;;15.00;;
75820;SDS011;64454;51.984;9.838;2024-03-02T05:15:21;21.30;;;15.40;;
75820;SDS011;64454;51.984;9.838;2024-03-02T05:17:47;23.63;;;15.43;;
75820;SDS011;64454;51.984;9.838;2024-03-02T05:20:13;22.20;;;14.80;;
75820;SDS011;64454;51.984;9.838;2024-03-02T05:22:40;22.08;;;14.95;;
75820;SDS011;64454;51.984;9.838;2024-03-02T05:25:06;22.75;;;15.45;;
75820;SDS011;64454;51.984;9.838;2024-03-02T05:27:35;18.85;;;14.40;;
75820;SDS011;64454;51.984;9.838;2024-03-02T05:30:01;23.05;;;14.60;;
75820;SDS011;64454;51.984;9.838;2024-03-02T05:32:31;24.52;;;16.40;;
75820;SDS011;64454;51.984;9.838;2024-03-02T05:34:57;25.15;;;15.23;;
75820;SDS011;64454;51.984;9.838;2024-03-02T05:37:23;22.00;;;14.63;;
75820;SDS011;64454;51.984;9.838;2024-03-02T05:39:49;21.85;;;15.50;;
75820;SDS011;64454;51.984;9.838;2024-03-02T05:42:15;21.75;;;15.20;;
75820;SDS011;64454;51.984;9.838;2024-03-02T05:44:43;23.10;;;15.38;;
75820;SDS011;64454;51.984;9.838;2024-03-02T05:47:09;22.98;;;15.27;;
75820;SDS011;64454;51.984;9.838;2024-03-02T05:49:35;21.05;;;14.82;;
75820;SDS011;64454;51.984;9.838;2024-03-02T05:52:02;22.60;;;14.68;;
75820;SDS011;64454;51.984;9.838;2024-03-02T05:54:28;22.23;;;15.90;;
75820;SDS011;64454;51.984;9.838;2024-03-02T05:56:54;21.33;;;15.07;;
75820;SDS011;64454;51.984;9.838;2024-03-02T05:59:20;21.23;;;15.55;;
75820;SDS011;64454;51.984;9.838;2024-03-02T06:01:47;20.85;;;14.48;;
75820;SDS011;64454;51.984;9.838;2024-03-02T06:04:15;23.00;;;15.82;;
75820;SDS011;64454;51.984;9.838;2024-03-02T06:07:02;22.75;;;15.05;;
75820;SDS011;64454;51.984;9.838;2024-03-02T06:09:48;19.17;;;14.13;;
75820;SDS011;64454;51.984;9.838;2024-03-02T06:12:37;23.50;;;15.90;;
75820;SDS011;64454;51.984;9.838;2024-03-02T06:15:03;26.02;;;16.33;;
75820;SDS011;64454;51.984;9.838;2024-03-02T06:17:31;22.60;;;15.38;;
75820;SDS011;64454;51.984;9.838;2024-03-02T06:19:57;23.40;;;15.50;;
75820;SDS011;64454;51.984;9.838;2024-03-02T06:22:23;20.30;;;14.68;;
75820;SDS011;64454;51.984;9.838;2024-03-02T06:24:50;25.07;;;16.43;;
75820;SDS011;64454;51.984;9.838;2024-03-02T06:27:16;23.77;;;15.82;;
75820;SDS011;64454;51.984;9.838;2024-03-02T06:29:42;20.77;;;14.68;;
75820;SDS011;64454;51.984;9.838;2024-03-02T06:32:08;21.53;;;15.30;;
75820;SDS011;64454;51.984;9.838;2024-03-02T06:34:35;20.60;;;14.68;;
75820;SDS011;64454;51.984;9.838;2024-03-02T06:37:01;21.92;;;16.33;;
75820;SDS011;64454;51.984;9.838;2024-03-02T06:39:28;22.90;;;15.00;;
75820;SDS011;64454;51.984;9.838;2024-03-02T06:41:56;20.95;;;15.15;;
75820;SDS011;64454;51.984;9.838;2024-03-02T06:44:22;19.87;;;15.10;;
75820;SDS011;64454;51.984;9.838;2024-03-02T06:46:48;22.00;;;14.98;;
75820;SDS011;64454;51.984;9.838;2024-03-02T06:49:14;20.00;;;14.90;;
75820;SDS011;64454;51.984;9.838;2024-03-02T06:51:43;21.45;;;15.15;;
75820;SDS011;64454;51.984;9.838;2024-03-02T06:54:09;20.17;;;15.07;;
75820;SDS011;64454;51.984;9.838;2024-03-02T06:56:35;23.95;;;15.48;;
75820;SDS011;64454;51.984;9.838;2024-03-02T06:59:02;21.20;;;14.80;;
75820;SDS011;64454;51.984;9.838;2024-03-02T07:01:28;21.77;;;14.55;;
75820;SDS011;64454;51.984;9.838;2024-03-02T07:03:54;21.45;;;14.57;;
75820;SDS011;64454;51.984;9.838;2024-03-02T07:06:20;19.37;;;14.10;;
75820;SDS011;64454;51.984;9.838;2024-03-02T07:08:47;20.17;;;14.32;;
75820;SDS011;64454;51.984;9.838;2024-03-02T07:11:13;20.30;;;13.50;;
75820;SDS011;64454;51.984;9.838;2024-03-02T07:13:39;20.13;;;14.57;;
75820;SDS011;64454;51.984;9.838;2024-03-02T07:16:05;21.52;;;14.75;;
75820;SDS011;64454;51.984;9.838;2024-03-02T07:18:49;19.38;;;14.50;;
75820;SDS011;64454;51.984;9.838;2024-03-02T07:21:17;20.55;;;14.45;;
75820;SDS011;64454;51.984;9.838;2024-03-02T07:23:43;19.25;;;13.20;;
75820;SDS011;64454;51.984;9.838;2024-03-02T07:26:10;19.50;;;14.05;;
75820;SDS011;64454;51.984;9.838;2024-03-02T07:28:36;20.67;;;13.93;;
75820;SDS011;64454;51.984;9.838;2024-03-02T07:31:02;17.88;;;12.10;;
75820;SDS011;64454;51.984;9.838;2024-03-02T07:33:30;19.40;;;13.07;;
75820;SDS011;64454;51.984;9.838;2024-03-02T07:35:57;17.67;;;14.17;;
75820;SDS011;64454;51.984;9.838;2024-03-02T07:38:25;19.40;;;14.80;;
75820;SDS011;64454;51.984;9.838;2024-03-02T07:40:52;18.98;;;13.85;;
75820;SDS011;64454;51.984;9.838;2024-03-02T07:43:19;18.35;;;13.90;;
75820;SDS011;64454;51.984;9.838;2024-03-02T07:45:45;20.42;;;14.00;;
75820;SDS011;64454;51.984;9.838;2024-03-02T07:48:11;20.55;;;15.60;;
75820;SDS011;64454;51.984;9.838;2024-03-02T07:50:38;20.13;;;14.43;;
75820;SDS011;64454;51.984;9.838;2024-03-02T07:53:04;20.88;;;14.40;;
75820;SDS011;64454;51.984;9.838;2024-03-02T07:55:32;20.48;;;15.00;;
75820;SDS011;64454;51.984;9.838;2024-03-02T07:57:58;22.35;;;15.60;;
75820;SDS011;64454;51.984;9.838;2024-03-02T08:00:26;21.67;;;15.35;;
75820;SDS011;64454;51.984;9.838;2024-03-02T08:02:52;22.55;;;15.32;;
75820;SDS011;64454;51.984;9.838;2024-03-02T08:05:19;23.33;;;15.88;;
75820;SDS011;64454;51.984;9.838;2024-03-02T08:07:45;24.83;;;16.10;;
75820;SDS011;64454;51.984;9.838;2024-03-02T08:10:12;24.15;;;15.95;;
75820;SDS011;64454;51.984;9.838;2024-03-02T08:12:39;21.83;;;15.52;;
75820;SDS011;64454;51.984;9.838;2024-03-02T08:15:05;22.95;;;15.98;;
75820;SDS011;64454;51.984;9.838;2024-03-02T08:17:32;21.83;;;15.38;;
75820;SDS011;64454;51.984;9.838;2024-03-02T08:19:58;21.77;;;15.13;;
75820;SDS011;64454;51.984;9.838;2024-03-02T08:22:25;20.40;;;14.38;;
75820;SDS011;64454;51.984;9.838;2024-03-02T08:24:51;22.17;;;15.93;;
75820;SDS011;64454;51.984;9.838;2024-03-02T08:27:17;20.80;;;14.50;;
75820;SDS011;64454;51.984;9.838;2024-03-02T08:29:43;21.85;;;15.02;;
75820;SDS011;64454;51.984;9.838;2024-03-02T08:32:09;20.50;;;14.02;;
75820;SDS011;64454;51.984;9.838;2024-03-02T08:34:35;20.10;;;14.05;;
75820;SDS011;64454;51.984;9.838;2024-03-02T08:37:02;20.65;;;14.90;;
75820;SDS011;64454;51.984;9.838;2024-03-02T08:39:28;22.00;;;14.70;;
75820;SDS011;64454;51.984;9.838;2024-03-02T08:41:55;20.70;;;14.30;;
75820;SDS011;64454;51.984;9.838;2024-03-02T08:44:21;18.17;;;13.50;;
75820;SDS011;64454;51.984;9.838;2024-03-02T08:46:47;20.13;;;14.93;;
75820;SDS011;64454;51.984;9.838;2024-03-02T08:49:13;19.33;;;14.70;;
75820;SDS011;64454;51.984;9.838;2024-03-02T08:51:40;19.40;;;14.10;;
75820;SDS011;64454;51.984;9.838;2024-03-02T08:54:06;21.85;;;14.93;;
75820;SDS011;64454;51.984;9.838;2024-03-02T08:56:32;19.50;;;14.47;;
75820;SDS011;64454;51.984;9.838;2024-03-02T08:58:58;20.83;;;14.30;;
75820;SDS011;64454;51.984;9.838;2024-03-02T09:01:24;22.20;;;15.15;;
75820;SDS011;64454;51.984;9.838;2024-03-02T09:03:50;17.48;;;13.18;;
75820;SDS011;64454;51.984;9.838;2024-03-02T09:06:17;19.77;;;14.50;;
75820;SDS011;64454;51.984;9.838;2024-03-02T09:08:45;20.25;;;15.10;;
75820;SDS011;64454;51.984;9.838;2024-03-02T09:11:11;20.70;;;14.48;;
75820;SDS011;64454;51.984;9.838;2024-03-02T09:13:37;20.00;;;13.40;;
75820;SDS011;64454;51.984;9.838;2024-03-02T09:16:04;20.40;;;15.00;;
75820;SDS011;64454;51.984;9.838;2024-03-02T09:18:30;20.30;;;14.27;;
75820;SDS011;64454;51.984;9.838;2024-03-02T09:20:56;20.40;;;13.50;;
75820;SDS011;64454;51.984;9.838;2024-03-02T09:23:22;18.95;;;14.88;;
75820;SDS011;64454;51.984;9.838;2024-03-02T09:25:49;18.50;;;14.02;;
75820;SDS011;64454;51.984;9.838;2024-03-02T09:28:15;19.88;;;14.10;;
75820;SDS011;64454;51.984;9.838;2024-03-02T09:30:41;20.85;;;14.77;;
75820;SDS011;64454;51.984;9.838;2024-03-02T09:33:07;19.35;;;14.90;;
75820;SDS011;64454;51.984;9.838;2024-03-02T09:35:33;20.53;;;12.93;;
75820;SDS011;64454;51.984;9.838;2024-03-02T09:37:59;20.00;;;13.70;;
75820;SDS011;64454;51.984;9.838;2024-03-02T09:40:25;19.75;;;14.10;;
75820;SDS011;64454;51.984;9.838;2024-03-02T09:42:53;19.48;;;13.65;;
75820;SDS011;64454;51.984;9.838;2024-03-02T09:45:22;19.20;;;13.25;;
75820;SDS011;64454;51.984;9.838;2024-03-02T09:47:50;18.70;;;13.50;;
75820;SDS011;64454;51.984;9.838;2024-03-02T09:50:16;19.35;;;12.98;;
75820;SDS011;64454;51.984;9.838;2024-03-02T09:52:42;18.08;;;13.75;;
75820;SDS011;64454;51.984;9.838;2024-03-02T09:55:09;17.23;;;13.40;;
75820;SDS011;64454;51.984;9.838;2024-03-02T09:57:37;16.95;;;12.82;;
75820;SDS011;64454;51.984;9.838;2024-03-02T10:00:04;19.55;;;13.35;;
75820;SDS011;64454;51.984;9.838;2024-03-02T10:02:32;17.97;;;12.90;;
75820;SDS011;64454;51.984;9.838;2024-03-02T10:04:58;18.30;;;13.00;;
75820;SDS011;64454;51.984;9.838;2024-03-02T10:07:24;17.50;;;12.73;;
75820;SDS011;64454;51.984;9.838;2024-03-02T10:09:50;17.25;;;12.52;;
75820;SDS011;64454;51.984;9.838;2024-03-02T10:12:17;19.80;;;12.82;;
75820;SDS011;64454;51.984;9.838;2024-03-02T10:14:44;17.70;;;12.20;;
75820;SDS011;64454;51.984;9.838;2024-03-02T10:17:12;16.60;;;11.98;;
75820;SDS011;64454;51.984;9.838;2024-03-02T10:19:39;16.13;;;11.82;;
75820;SDS011;64454;51.984;9.838;2024-03-02T10:22:06;17.97;;;12.43;;
75820;SDS011;64454;51.984;9.838;2024-03-02T10:24:37;17.42;;;12.23;;
75820;SDS011;64454;51.984;9.838;2024-03-02T10:27:08;17.83;;;12.85;;
75820;SDS011;64454;51.984;9.838;2024-03-02T10:29:39;16.90;;;13.60;;
75820;SDS011;64454;51.984;9.838;2024-03-02T10:32:06;16.65;;;11.88;;
75820;SDS011;64454;51.984;9.838;2024-03-02T10:34:35;18.60;;;11.55;;
75820;SDS011;64454;51.984;9.838;2024-03-02T10:37:02;15.90;;;12.00;;
75820;SDS011;64454;51.984;9.838;2024-03-02T10:39:28;15.50;;;11.70;;
75820;SDS011;64454;51.984;9.838;2024-03-02T10:41:56;15.77;;;12.40;;
75820;SDS011;64454;51.984;9.838;2024-03-02T10:44:24;16.52;;;11.73;;
75820;SDS011;64454;51.984;9.838;2024-03-02T10:46:52;15.38;;;11.70;;
75820;SDS011;64454;51.984;9.838;2024-03-02T10:49:19;15.20;;;11.90;;
75820;SDS011;64454;51.984;9.838;2024-03-02T10:51:48;16.67;;;11.80;;
75820;SDS011;64454;51.984;9.838;2024-03-02T10:54:15;16.20;;;11.90;;
75820;SDS011;64454;51.984;9.838;2024-03-02T10:56:41;13.93;;;11.20;;
75820;SDS011;64454;51.984;9.838;2024-03-02T10:59:12;15.90;;;11.10;;
75820;SDS011;64454;51.984;9.838;2024-03-02T11:01:45;16.25;;;11.00;;
75820;SDS011;64454;51.984;9.838;2024-03-02T11:04:14;15.38;;;11.88;;
75820;SDS011;64454;51.984;9.838;2024-03-02T11:06:44;14.27;;;11.35;;
75820;SDS011;64454;51.984;9.838;2024-03-02T11:09:16;13.27;;;10.55;;
75820;SDS011;64454;51.984;9.838;2024-03-02T11:11:48;13.85;;;10.70;;
75820;SDS011;64454;51.984;9.838;2024-03-02T11:14:26;13.73;;;9.40;;
75820;SDS011;64454;51.984;9.838;2024-03-02T11:16:55;14.20;;;9.52;;
75820;SDS011;64454;51.984;9.838;2024-03-02T11:19:22;12.80;;;9.70;;
75820;SDS011;64454;51.984;9.838;2024-03-02T11:21:50;11.35;;;9.00;;
75820;SDS011;64454;51.984;9.838;2024-03-02T11:24:32;12.43;;;9.20;;
75820;SDS011;64454;51.984;9.838;2024-03-02T11:26:59;13.00;;;9.00;;
75820;SDS011;64454;51.984;9.838;2024-03-02T11:29:44;13.20;;;9.38;;
75820;SDS011;64454;51.984;9.838;2024-03-02T11:32:15;13.52;;;8.80;;
75820;SDS011;64454;51.984;9.838;2024-03-02T11:34:46;12.00;;;9.35;;
75820;SDS011;64454;51.984;9.838;2024-03-02T11:37:15;12.68;;;8.98;;
75820;SDS011;64454;51.984;9.838;2024-03-02T11:39:42;13.82;;;9.63;;
75820;SDS011;64454;51.984;9.838;2024-03-02T11:42:10;15.48;;;10.38;;
75820;SDS011;64454;51.984;9.838;2024-03-02T11:44:39;12.18;;;8.52;;
75820;SDS011;64454;51.984;9.838;2024-03-02T11:47:10;13.40;;;9.23;;
75820;SDS011;64454;51.984;9.838;2024-03-02T11:49:40;11.55;;;8.80;;
75820;SDS011;64454;51.984;9.838;2024-03-02T11:52:09;14.27;;;9.60;;
75820;SDS011;64454;51.984;9.838;2024-03-02T11:54:37;11.45;;;9.00;;
75820;SDS011;64454;51.984;9.838;2024-03-02T11:57:05;12.63;;;9.10;;
75820;SDS011;64454;51.984;9.838;2024-03-02T11:59:32;13.07;;;8.90;;
75820;SDS011;64454;51.984;9.838;2024-03-02T12:01:58;14.00;;;9.90;;
75820;SDS011;64454;51.984;9.838;2024-03-02T12:04:25;10.10;;;8.20;;
75820;SDS011;64454;51.984;9.838;2024-03-02T12:06:55;10.90;;;8.57;;
75820;SDS011;64454;51.984;9.838;2024-03-02T12:09:25;10.50;;;8.05;;
75820;SDS011;64454;51.984;9.838;2024-03-02T12:12:01;11.60;;;8.20;;
75820;SDS011;64454;51.984;9.838;2024-03-02T12:14:30;11.30;;;8.50;;
75820;SDS011;64454;51.984;9.838;2024-03-02T12:16:56;10.48;;;8.63;;
75820;SDS011;64454;51.984;9.838;2024-03-02T12:19:23;13.20;;;8.07;;
75820;SDS011;64454;51.984;9.838;2024-03-02T12:21:50;12.32;;;9.30;;
75820;SDS011;64454;51.984;9.838;2024-03-02T12:24:16;10.38;;;7.90;;
75820;SDS011;64454;51.984;9.838;2024-03-02T12:26:42;10.90;;;8.00;;
75820;SDS011;64454;51.984;9.838;2024-03-02T12:29:09;10.80;;;7.38;;
75820;SDS011;64454;51.984;9.838;2024-03-02T12:31:36;11.60;;;8.07;;
75820;SDS011;64454;51.984;9.838;2024-03-02T12:34:02;9.40;;;7.80;;
75820;SDS011;64454;51.984;9.838;2024-03-02T12:36:29;11.55;;;7.95;;
75820;SDS011;64454;51.984;9.838;2024-03-02T12:38:55;10.93;;;7.77;;
75820;SDS011;64454;51.984;9.838;2024-03-02T12:41:21;10.18;;;7.30;;
75820;SDS011;64454;51.984;9.838;2024-03-02T12:43:47;10.02;;;7.03;;
75820;SDS011;64454;51.984;9.838;2024-03-02T12:46:14;9.77;;;6.80;;
75820;SDS011;64454;51.984;9.838;2024-03-02T12:48:41;9.60;;;7.10;;
75820;SDS011;64454;51.984;9.838;2024-03-02T12:51:07;10.67;;;6.40;;
75820;SDS011;64454;51.984;9.838;2024-03-02T12:53:33;7.70;;;6.38;;
75820;SDS011;64454;51.984;9.838;2024-03-02T12:55:59;8.25;;;6.50;;
75820;SDS011;64454;51.984;9.838;2024-03-02T12:58:25;7.45;;;5.80;;
75820;SDS011;64454;51.984;9.838;2024-03-02T13:01:05;8.52;;;7.10;;
75820;SDS011;64454;51.984;9.838;2024-03-02T13:03:35;9.90;;;7.20;;
75820;SDS011;64454;51.984;9.838;2024-03-02T13:06:02;8.55;;;6.97;;
75820;SDS011;64454;51.984;9.838;2024-03-02T13:08:29;8.70;;;6.82;;
75820;SDS011;64454;51.984;9.838;2024-03-02T13:10:55;9.40;;;6.90;;
75820;SDS011;64454;51.984;9.838;2024-03-02T13:13:22;8.77;;;6.80;;
75820;SDS011;64454;51.984;9.838;2024-03-02T13:15:48;7.78;;;6.40;;
75820;SDS011;64454;51.984;9.838;2024-03-02T13:18:14;7.22;;;5.70;;
75820;SDS011;64454;51.984;9.838;2024-03-02T13:20:43;8.43;;;6.35;;
75820;SDS011;64454;51.984;9.838;2024-03-02T13:23:09;9.20;;;6.80;;
75820;SDS011;64454;51.984;9.838;2024-03-02T13:25:36;7.83;;;6.30;;
75820;SDS011;64454;51.984;9.838;2024-03-02T13:28:02;8.60;;;6.70;;
75820;SDS011;64454;51.984;9.838;2024-03-02T13:30:28;9.00;;;6.30;;
75820;SDS011;64454;51.984;9.838;2024-03-02T13:32:54;8.80;;;6.80;;
75820;SDS011;64454;51.984;9.838;2024-03-02T13:35:20;10.70;;;6.78;;
75820;SDS011;64454;51.984;9.838;2024-03-02T13:37:47;7.60;;;5.75;;
75820;SDS011;64454;51.984;9.838;2024-03-02T13:40:15;6.87;;;5.70;;
75820;SDS011;64454;51.984;9.838;2024-03-02T13:42:45;7.72;;;5.93;;
75820;SDS011;64454;51.984;9.838;2024-03-02T13:45:11;7.53;;;6.10;;
75820;SDS011;64454;51.984;9.838;2024-03-02T13:47:38;8.82;;;6.30;;
75820;SDS011;64454;51.984;9.838;2024-03-02T13:50:05;7.53;;;6.30;;
75820;SDS011;64454;51.984;9.838;2024-03-02T13:52:32;9.10;;;6.20;;
75820;SDS011;64454;51.984;9.838;2024-03-02T13:54:59;6.70;;;6.00;;
75820;SDS011;64454;51.984;9.838;2024-03-02T13:57:25;6.63;;;5.50;;
75820;SDS011;64454;51.984;9.838;2024-03-02T13:59:51;7.47;;;6.50;;
75820;SDS011;64454;51.984;9.838;2024-03-02T14:02:18;8.93;;;6.43;;
75820;SDS011;64454;51.984;9.838;2024-03-02T14:04:44;8.02;;;6.00;;
75820;SDS011;64454;51.984;9.838;2024-03-02T14:07:10;7.87;;;6.00;;
75820;SDS011;64454;51.984;9.838;2024-03-02T14:09:37;6.80;;;5.78;;
75820;SDS011;64454;51.984;9.838;2024-03-02T14:12:04;6.68;;;5.65;;
75820;SDS011;64454;51.984;9.838;2024-03-02T14:14:31;7.30;;;5.70;;
75820;SDS011;64454;51.984;9.838;2024-03-02T14:16:58;6.63;;;4.63;;
75820;SDS011;64454;51.984;9.838;2024-03-02T14:19:25;7.28;;;5.82;;
75820;SDS011;64454;51.984;9.838;2024-03-02T14:21:51;8.13;;;5.93;;
75820;SDS011;64454;51.984;9.838;2024-03-02T14:24:18;7.25;;;5.57;;
75820;SDS011;64454;51.984;9.838;2024-03-02T14:26:44;6.25;;;5.30;;
75820;SDS011;64454;51.984;9.838;2024-03-02T14:29:11;8.00;;;5.50;;